<?xml version="1.0" encoding="UTF-8" standalone="no" ?>
<gpx xmlns="http://www.topografix.com/GPX/1/1" xmlns:xsi="http://www.w3.org/2001/XMLSchema-instance" xsi:schemaLocation="http://www.topografix.com/GPX/1/1 http://www.topografix.com/GPX/1/1/gpx.xsd" version="1.1" creator="VisuGPX - https://www.visugpx.com">
  <metadata>
    <name>Tête Pelouse (74 Aravis)</name>
    <desc><![CDATA[Départ des Confins
Photos et infos sur : www.photosrandos.fr]]></desc>
  </metadata>
  <trk>
    <name><![CDATA[track]]></name>
    <trkseg>
      <trkpt lat="45.92335" lon="6.48352">
        <ele>1398</ele>
        <time>2008-03-20T08:11:10Z</time>
      </trkpt>
      <trkpt lat="45.92323" lon="6.48367">
        <ele>1397</ele>
        <time>2008-03-20T08:11:32Z</time>
      </trkpt>
      <trkpt lat="45.92307" lon="6.48373">
        <ele>1397</ele>
        <time>2008-03-20T08:11:48Z</time>
      </trkpt>
      <trkpt lat="45.92292" lon="6.48382">
        <ele>1397</ele>
        <time>2008-03-20T08:12:02Z</time>
      </trkpt>
      <trkpt lat="45.92282" lon="6.48402">
        <ele>1397</ele>
        <time>2008-03-20T08:12:23Z</time>
      </trkpt>
      <trkpt lat="45.92268" lon="6.48415">
        <ele>1398</ele>
        <time>2008-03-20T08:16:12Z</time>
      </trkpt>
      <trkpt lat="45.92253" lon="6.48427">
        <ele>1400</ele>
        <time>2008-03-20T08:16:36Z</time>
      </trkpt>
      <trkpt lat="45.92238" lon="6.4844">
        <ele>1400</ele>
        <time>2008-03-20T08:16:58Z</time>
      </trkpt>
      <trkpt lat="45.92225" lon="6.48453">
        <ele>1400</ele>
        <time>2008-03-20T08:17:16Z</time>
      </trkpt>
      <trkpt lat="45.92212" lon="6.48468">
        <ele>1401</ele>
        <time>2008-03-20T08:17:34Z</time>
      </trkpt>
      <trkpt lat="45.922" lon="6.48485">
        <ele>1403</ele>
        <time>2008-03-20T08:17:55Z</time>
      </trkpt>
      <trkpt lat="45.9219" lon="6.48505">
        <ele>1404</ele>
        <time>2008-03-20T08:18:15Z</time>
      </trkpt>
      <trkpt lat="45.9218" lon="6.48525">
        <ele>1408</ele>
        <time>2008-03-20T08:18:43Z</time>
      </trkpt>
      <trkpt lat="45.92172" lon="6.48545">
        <ele>1410</ele>
        <time>2008-03-20T08:19:07Z</time>
      </trkpt>
      <trkpt lat="45.92163" lon="6.48567">
        <ele>1412</ele>
        <time>2008-03-20T08:19:33Z</time>
      </trkpt>
      <trkpt lat="45.92155" lon="6.48588">
        <ele>1413</ele>
        <time>2008-03-20T08:19:59Z</time>
      </trkpt>
      <trkpt lat="45.92145" lon="6.48608">
        <ele>1414</ele>
        <time>2008-03-20T08:20:21Z</time>
      </trkpt>
      <trkpt lat="45.92135" lon="6.48627">
        <ele>1416</ele>
        <time>2008-03-20T08:20:43Z</time>
      </trkpt>
      <trkpt lat="45.92127" lon="6.48648">
        <ele>1415</ele>
        <time>2008-03-20T08:21:10Z</time>
      </trkpt>
      <trkpt lat="45.92132" lon="6.48672">
        <ele>1417</ele>
        <time>2008-03-20T08:21:34Z</time>
      </trkpt>
      <trkpt lat="45.9214" lon="6.48693">
        <ele>1420</ele>
        <time>2008-03-20T08:22:00Z</time>
      </trkpt>
      <trkpt lat="45.92152" lon="6.48708">
        <ele>1420</ele>
        <time>2008-03-20T08:22:12Z</time>
      </trkpt>
      <trkpt lat="45.9216" lon="6.48727">
        <ele>1419</ele>
        <time>2008-03-20T08:22:22Z</time>
      </trkpt>
      <trkpt lat="45.92165" lon="6.48748">
        <ele>1417</ele>
        <time>2008-03-20T08:22:34Z</time>
      </trkpt>
      <trkpt lat="45.9217" lon="6.4877">
        <ele>1416</ele>
        <time>2008-03-20T08:22:44Z</time>
      </trkpt>
      <trkpt lat="45.92175" lon="6.48792">
        <ele>1416</ele>
        <time>2008-03-20T08:22:56Z</time>
      </trkpt>
      <trkpt lat="45.92178" lon="6.48815">
        <ele>1414</ele>
        <time>2008-03-20T08:23:06Z</time>
      </trkpt>
      <trkpt lat="45.92175" lon="6.48835">
        <ele>1412</ele>
        <time>2008-03-20T08:23:12Z</time>
      </trkpt>
      <trkpt lat="45.92168" lon="6.48855">
        <ele>1411</ele>
        <time>2008-03-20T08:23:20Z</time>
      </trkpt>
      <trkpt lat="45.92165" lon="6.4888">
        <ele>1410</ele>
        <time>2008-03-20T08:23:36Z</time>
      </trkpt>
      <trkpt lat="45.92152" lon="6.48863">
        <ele>1413</ele>
        <time>2008-03-20T08:26:39Z</time>
      </trkpt>
      <trkpt lat="45.92152" lon="6.4884">
        <ele>1414</ele>
        <time>2008-03-20T08:27:54Z</time>
      </trkpt>
      <trkpt lat="45.92148" lon="6.48815">
        <ele>1416</ele>
        <time>2008-03-20T08:28:12Z</time>
      </trkpt>
      <trkpt lat="45.92153" lon="6.48793">
        <ele>1421</ele>
        <time>2008-03-20T08:28:40Z</time>
      </trkpt>
      <trkpt lat="45.92145" lon="6.48772">
        <ele>1423</ele>
        <time>2008-03-20T08:29:00Z</time>
      </trkpt>
      <trkpt lat="45.9214" lon="6.48748">
        <ele>1428</ele>
        <time>2008-03-20T08:29:28Z</time>
      </trkpt>
      <trkpt lat="45.9213" lon="6.4873">
        <ele>1434</ele>
        <time>2008-03-20T08:29:58Z</time>
      </trkpt>
      <trkpt lat="45.92118" lon="6.48713">
        <ele>1434</ele>
        <time>2008-03-20T08:30:17Z</time>
      </trkpt>
      <trkpt lat="45.92105" lon="6.48697">
        <ele>1436</ele>
        <time>2008-03-20T08:30:39Z</time>
      </trkpt>
      <trkpt lat="45.92088" lon="6.48693">
        <ele>1441</ele>
        <time>2008-03-20T08:31:05Z</time>
      </trkpt>
      <trkpt lat="45.92072" lon="6.487">
        <ele>1444</ele>
        <time>2008-03-20T08:31:29Z</time>
      </trkpt>
      <trkpt lat="45.92057" lon="6.48687">
        <ele>1452</ele>
        <time>2008-03-20T08:32:17Z</time>
      </trkpt>
      <trkpt lat="45.92057" lon="6.48662">
        <ele>1454</ele>
        <time>2008-03-20T08:32:45Z</time>
      </trkpt>
      <trkpt lat="45.92042" lon="6.4867">
        <ele>1459</ele>
        <time>2008-03-20T08:33:28Z</time>
      </trkpt>
      <trkpt lat="45.92028" lon="6.48687">
        <ele>1460</ele>
        <time>2008-03-20T08:33:52Z</time>
      </trkpt>
      <trkpt lat="45.92015" lon="6.48702">
        <ele>1464</ele>
        <time>2008-03-20T08:34:22Z</time>
      </trkpt>
      <trkpt lat="45.92005" lon="6.48722">
        <ele>1467</ele>
        <time>2008-03-20T08:34:46Z</time>
      </trkpt>
      <trkpt lat="45.91992" lon="6.48737">
        <ele>1470</ele>
        <time>2008-03-20T08:35:16Z</time>
      </trkpt>
      <trkpt lat="45.91975" lon="6.48742">
        <ele>1470</ele>
        <time>2008-03-20T08:35:36Z</time>
      </trkpt>
      <trkpt lat="45.91958" lon="6.48747">
        <ele>1475</ele>
        <time>2008-03-20T08:36:10Z</time>
      </trkpt>
      <trkpt lat="45.91942" lon="6.48752">
        <ele>1478</ele>
        <time>2008-03-20T08:36:47Z</time>
      </trkpt>
      <trkpt lat="45.91925" lon="6.48757">
        <ele>1482</ele>
        <time>2008-03-20T08:37:19Z</time>
      </trkpt>
      <trkpt lat="45.91908" lon="6.4876">
        <ele>1484</ele>
        <time>2008-03-20T08:37:47Z</time>
      </trkpt>
      <trkpt lat="45.91892" lon="6.48762">
        <ele>1486</ele>
        <time>2008-03-20T08:38:21Z</time>
      </trkpt>
      <trkpt lat="45.91875" lon="6.4876">
        <ele>1489</ele>
        <time>2008-03-20T08:38:55Z</time>
      </trkpt>
      <trkpt lat="45.91858" lon="6.48757">
        <ele>1493</ele>
        <time>2008-03-20T08:39:30Z</time>
      </trkpt>
      <trkpt lat="45.91842" lon="6.48753">
        <ele>1497</ele>
        <time>2008-03-20T08:40:22Z</time>
      </trkpt>
      <trkpt lat="45.91825" lon="6.48753">
        <ele>1498</ele>
        <time>2008-03-20T08:40:50Z</time>
      </trkpt>
      <trkpt lat="45.9181" lon="6.48745">
        <ele>1501</ele>
        <time>2008-03-20T08:41:58Z</time>
      </trkpt>
      <trkpt lat="45.91793" lon="6.48745">
        <ele>1509</ele>
        <time>2008-03-20T08:43:49Z</time>
      </trkpt>
      <trkpt lat="45.91777" lon="6.48747">
        <ele>1510</ele>
        <time>2008-03-20T08:44:11Z</time>
      </trkpt>
      <trkpt lat="45.9176" lon="6.48755">
        <ele>1512</ele>
        <time>2008-03-20T08:44:47Z</time>
      </trkpt>
      <trkpt lat="45.91747" lon="6.48772">
        <ele>1510</ele>
        <time>2008-03-20T08:45:27Z</time>
      </trkpt>
      <trkpt lat="45.9173" lon="6.48777">
        <ele>1515</ele>
        <time>2008-03-20T08:46:20Z</time>
      </trkpt>
      <trkpt lat="45.91715" lon="6.4879">
        <ele>1516</ele>
        <time>2008-03-20T08:46:58Z</time>
      </trkpt>
      <trkpt lat="45.91702" lon="6.48807">
        <ele>1515</ele>
        <time>2008-03-20T08:47:34Z</time>
      </trkpt>
      <trkpt lat="45.91685" lon="6.48808">
        <ele>1517</ele>
        <time>2008-03-20T08:48:20Z</time>
      </trkpt>
      <trkpt lat="45.9167" lon="6.48817">
        <ele>1521</ele>
        <time>2008-03-20T08:48:53Z</time>
      </trkpt>
      <trkpt lat="45.91653" lon="6.48825">
        <ele>1526</ele>
        <time>2008-03-20T08:49:31Z</time>
      </trkpt>
      <trkpt lat="45.91638" lon="6.48835">
        <ele>1530</ele>
        <time>2008-03-20T08:50:05Z</time>
      </trkpt>
      <trkpt lat="45.91623" lon="6.48843">
        <ele>1534</ele>
        <time>2008-03-20T08:50:35Z</time>
      </trkpt>
      <trkpt lat="45.91608" lon="6.48852">
        <ele>1539</ele>
        <time>2008-03-20T08:51:11Z</time>
      </trkpt>
      <trkpt lat="45.91593" lon="6.48865">
        <ele>1544</ele>
        <time>2008-03-20T08:51:50Z</time>
      </trkpt>
      <trkpt lat="45.9158" lon="6.48878">
        <ele>1548</ele>
        <time>2008-03-20T08:52:22Z</time>
      </trkpt>
      <trkpt lat="45.91567" lon="6.48895">
        <ele>1553</ele>
        <time>2008-03-20T08:52:56Z</time>
      </trkpt>
      <trkpt lat="45.91555" lon="6.48912">
        <ele>1559</ele>
        <time>2008-03-20T08:53:32Z</time>
      </trkpt>
      <trkpt lat="45.91542" lon="6.48927">
        <ele>1563</ele>
        <time>2008-03-20T08:54:06Z</time>
      </trkpt>
      <trkpt lat="45.91557" lon="6.48937">
        <ele>1568</ele>
        <time>2008-03-20T08:54:57Z</time>
      </trkpt>
      <trkpt lat="45.91573" lon="6.48942">
        <ele>1573</ele>
        <time>2008-03-20T08:55:37Z</time>
      </trkpt>
      <trkpt lat="45.91588" lon="6.4895">
        <ele>1578</ele>
        <time>2008-03-20T08:56:19Z</time>
      </trkpt>
      <trkpt lat="45.91585" lon="6.48975">
        <ele>1587</ele>
        <time>2008-03-20T08:57:45Z</time>
      </trkpt>
      <trkpt lat="45.9157" lon="6.48988">
        <ele>1591</ele>
        <time>2008-03-20T08:58:18Z</time>
      </trkpt>
      <trkpt lat="45.91553" lon="6.48988">
        <ele>1595</ele>
        <time>2008-03-20T08:58:52Z</time>
      </trkpt>
      <trkpt lat="45.91538" lon="6.48998">
        <ele>1602</ele>
        <time>2008-03-20T08:59:26Z</time>
      </trkpt>
      <trkpt lat="45.91523" lon="6.49008">
        <ele>1608</ele>
        <time>2008-03-20T09:00:08Z</time>
      </trkpt>
      <trkpt lat="45.91507" lon="6.49013">
        <ele>1614</ele>
        <time>2008-03-20T09:00:46Z</time>
      </trkpt>
      <trkpt lat="45.9149" lon="6.49017">
        <ele>1620</ele>
        <time>2008-03-20T09:01:23Z</time>
      </trkpt>
      <trkpt lat="45.91473" lon="6.49023">
        <ele>1625</ele>
        <time>2008-03-20T09:01:59Z</time>
      </trkpt>
      <trkpt lat="45.91473" lon="6.49048">
        <ele>1635</ele>
        <time>2008-03-20T09:03:13Z</time>
      </trkpt>
      <trkpt lat="45.91472" lon="6.49073">
        <ele>1646</ele>
        <time>2008-03-20T09:04:42Z</time>
      </trkpt>
      <trkpt lat="45.91455" lon="6.4908">
        <ele>1652</ele>
        <time>2008-03-20T09:05:20Z</time>
      </trkpt>
      <trkpt lat="45.91438" lon="6.49083">
        <ele>1657</ele>
        <time>2008-03-20T09:06:00Z</time>
      </trkpt>
      <trkpt lat="45.91422" lon="6.49088">
        <ele>1663</ele>
        <time>2008-03-20T09:06:42Z</time>
      </trkpt>
      <trkpt lat="45.91405" lon="6.49097">
        <ele>1669</ele>
        <time>2008-03-20T09:07:23Z</time>
      </trkpt>
      <trkpt lat="45.91405" lon="6.49122">
        <ele>1678</ele>
        <time>2008-03-20T09:08:33Z</time>
      </trkpt>
      <trkpt lat="45.91392" lon="6.49138">
        <ele>1687</ele>
        <time>2008-03-20T09:09:47Z</time>
      </trkpt>
      <trkpt lat="45.91375" lon="6.4914">
        <ele>1692</ele>
        <time>2008-03-20T09:10:29Z</time>
      </trkpt>
      <trkpt lat="45.91358" lon="6.49137">
        <ele>1696</ele>
        <time>2008-03-20T09:11:04Z</time>
      </trkpt>
      <trkpt lat="45.91342" lon="6.49135">
        <ele>1701</ele>
        <time>2008-03-20T09:11:42Z</time>
      </trkpt>
      <trkpt lat="45.91325" lon="6.49137">
        <ele>1706</ele>
        <time>2008-03-20T09:12:20Z</time>
      </trkpt>
      <trkpt lat="45.91308" lon="6.49137">
        <ele>1711</ele>
        <time>2008-03-20T09:13:00Z</time>
      </trkpt>
      <trkpt lat="45.91292" lon="6.49132">
        <ele>1716</ele>
        <time>2008-03-20T09:13:39Z</time>
      </trkpt>
      <trkpt lat="45.91288" lon="6.49157">
        <ele>1723</ele>
        <time>2008-03-20T09:14:37Z</time>
      </trkpt>
      <trkpt lat="45.91285" lon="6.49182">
        <ele>1730</ele>
        <time>2008-03-20T09:15:23Z</time>
      </trkpt>
      <trkpt lat="45.91268" lon="6.49178">
        <ele>1735</ele>
        <time>2008-03-20T09:16:01Z</time>
      </trkpt>
      <trkpt lat="45.91267" lon="6.49203">
        <ele>1741</ele>
        <time>2008-03-20T09:16:44Z</time>
      </trkpt>
      <trkpt lat="45.91265" lon="6.49228">
        <ele>1745</ele>
        <time>2008-03-20T09:17:24Z</time>
      </trkpt>
      <trkpt lat="45.91252" lon="6.49243">
        <ele>1753</ele>
        <time>2008-03-20T09:18:14Z</time>
      </trkpt>
      <trkpt lat="45.91237" lon="6.49253">
        <ele>1760</ele>
        <time>2008-03-20T09:19:02Z</time>
      </trkpt>
      <trkpt lat="45.9122" lon="6.49262">
        <ele>1768</ele>
        <time>2008-03-20T09:20:23Z</time>
      </trkpt>
      <trkpt lat="45.91205" lon="6.4927">
        <ele>1776</ele>
        <time>2008-03-20T09:21:13Z</time>
      </trkpt>
      <trkpt lat="45.91188" lon="6.49278">
        <ele>1786</ele>
        <time>2008-03-20T09:22:23Z</time>
      </trkpt>
      <trkpt lat="45.9118" lon="6.493">
        <ele>1795</ele>
        <time>2008-03-20T09:23:40Z</time>
      </trkpt>
      <trkpt lat="45.91163" lon="6.49292">
        <ele>1800</ele>
        <time>2008-03-20T09:24:16Z</time>
      </trkpt>
      <trkpt lat="45.91148" lon="6.49282">
        <ele>1805</ele>
        <time>2008-03-20T09:24:52Z</time>
      </trkpt>
      <trkpt lat="45.91133" lon="6.49268">
        <ele>1812</ele>
        <time>2008-03-20T09:25:34Z</time>
      </trkpt>
      <trkpt lat="45.91117" lon="6.4926">
        <ele>1816</ele>
        <time>2008-03-20T09:26:09Z</time>
      </trkpt>
      <trkpt lat="45.911" lon="6.49252">
        <ele>1821</ele>
        <time>2008-03-20T09:26:43Z</time>
      </trkpt>
      <trkpt lat="45.91083" lon="6.49248">
        <ele>1826</ele>
        <time>2008-03-20T09:27:13Z</time>
      </trkpt>
      <trkpt lat="45.91072" lon="6.49267">
        <ele>1833</ele>
        <time>2008-03-20T09:27:49Z</time>
      </trkpt>
      <trkpt lat="45.91057" lon="6.49277">
        <ele>1839</ele>
        <time>2008-03-20T09:28:31Z</time>
      </trkpt>
      <trkpt lat="45.91057" lon="6.49302">
        <ele>1842</ele>
        <time>2008-03-20T09:39:35Z</time>
      </trkpt>
      <trkpt lat="45.91043" lon="6.49317">
        <ele>1849</ele>
        <time>2008-03-20T09:40:25Z</time>
      </trkpt>
      <trkpt lat="45.91027" lon="6.49313">
        <ele>1854</ele>
        <time>2008-03-20T09:40:59Z</time>
      </trkpt>
      <trkpt lat="45.9102" lon="6.49337">
        <ele>1861</ele>
        <time>2008-03-20T09:41:54Z</time>
      </trkpt>
      <trkpt lat="45.91003" lon="6.49345">
        <ele>1869</ele>
        <time>2008-03-20T09:42:46Z</time>
      </trkpt>
      <trkpt lat="45.90987" lon="6.49338">
        <ele>1874</ele>
        <time>2008-03-20T09:43:20Z</time>
      </trkpt>
      <trkpt lat="45.90972" lon="6.49328">
        <ele>1878</ele>
        <time>2008-03-20T09:43:52Z</time>
      </trkpt>
      <trkpt lat="45.9097" lon="6.49353">
        <ele>1882</ele>
        <time>2008-03-20T09:44:24Z</time>
      </trkpt>
      <trkpt lat="45.9097" lon="6.49378">
        <ele>1887</ele>
        <time>2008-03-20T09:44:59Z</time>
      </trkpt>
      <trkpt lat="45.90953" lon="6.49382">
        <ele>1894</ele>
        <time>2008-03-20T09:45:49Z</time>
      </trkpt>
      <trkpt lat="45.90938" lon="6.49368">
        <ele>1898</ele>
        <time>2008-03-20T09:46:21Z</time>
      </trkpt>
      <trkpt lat="45.90927" lon="6.49387">
        <ele>1909</ele>
        <time>2008-03-20T09:47:35Z</time>
      </trkpt>
      <trkpt lat="45.90923" lon="6.49412">
        <ele>1914</ele>
        <time>2008-03-20T09:48:10Z</time>
      </trkpt>
      <trkpt lat="45.90908" lon="6.494">
        <ele>1921</ele>
        <time>2008-03-20T09:49:02Z</time>
      </trkpt>
      <trkpt lat="45.90895" lon="6.49417">
        <ele>1932</ele>
        <time>2008-03-20T09:50:28Z</time>
      </trkpt>
      <trkpt lat="45.90895" lon="6.49442">
        <ele>1938</ele>
        <time>2008-03-20T09:51:01Z</time>
      </trkpt>
      <trkpt lat="45.90882" lon="6.49425">
        <ele>1942</ele>
        <time>2008-03-20T09:51:43Z</time>
      </trkpt>
      <trkpt lat="45.90868" lon="6.49442">
        <ele>1951</ele>
        <time>2008-03-20T09:52:57Z</time>
      </trkpt>
      <trkpt lat="45.90867" lon="6.49467">
        <ele>1955</ele>
        <time>2008-03-20T09:53:25Z</time>
      </trkpt>
      <trkpt lat="45.90872" lon="6.4949">
        <ele>1959</ele>
        <time>2008-03-20T09:53:55Z</time>
      </trkpt>
      <trkpt lat="45.90863" lon="6.49508">
        <ele>1964</ele>
        <time>2008-03-20T09:54:24Z</time>
      </trkpt>
      <trkpt lat="45.90853" lon="6.49528">
        <ele>1965</ele>
        <time>2008-03-20T09:54:50Z</time>
      </trkpt>
      <trkpt lat="45.9085" lon="6.49553">
        <ele>1970</ele>
        <time>2008-03-20T09:55:18Z</time>
      </trkpt>
      <trkpt lat="45.90838" lon="6.49572">
        <ele>1978</ele>
        <time>2008-03-20T09:56:14Z</time>
      </trkpt>
      <trkpt lat="45.90823" lon="6.49585">
        <ele>1988</ele>
        <time>2008-03-20T09:57:27Z</time>
      </trkpt>
      <trkpt lat="45.9083" lon="6.49607">
        <ele>1993</ele>
        <time>2008-03-20T09:57:59Z</time>
      </trkpt>
      <trkpt lat="45.90813" lon="6.49615">
        <ele>2002</ele>
        <time>2008-03-20T09:59:01Z</time>
      </trkpt>
      <trkpt lat="45.90797" lon="6.49613">
        <ele>2007</ele>
        <time>2008-03-20T09:59:29Z</time>
      </trkpt>
      <trkpt lat="45.9078" lon="6.4961">
        <ele>2013</ele>
        <time>2008-03-20T10:00:01Z</time>
      </trkpt>
      <trkpt lat="45.90763" lon="6.49617">
        <ele>2020</ele>
        <time>2008-03-20T10:00:36Z</time>
      </trkpt>
      <trkpt lat="45.90755" lon="6.49638">
        <ele>2027</ele>
        <time>2008-03-20T10:01:16Z</time>
      </trkpt>
      <trkpt lat="45.90753" lon="6.49663">
        <ele>2034</ele>
        <time>2008-03-20T10:01:52Z</time>
      </trkpt>
      <trkpt lat="45.90747" lon="6.49687">
        <ele>2039</ele>
        <time>2008-03-20T10:02:30Z</time>
      </trkpt>
      <trkpt lat="45.90732" lon="6.497">
        <ele>2047</ele>
        <time>2008-03-20T10:03:08Z</time>
      </trkpt>
      <trkpt lat="45.90717" lon="6.49712">
        <ele>2053</ele>
        <time>2008-03-20T10:03:41Z</time>
      </trkpt>
      <trkpt lat="45.90702" lon="6.49725">
        <ele>2058</ele>
        <time>2008-03-20T10:04:13Z</time>
      </trkpt>
      <trkpt lat="45.90688" lon="6.49738">
        <ele>2060</ele>
        <time>2008-03-20T10:04:33Z</time>
      </trkpt>
      <trkpt lat="45.90673" lon="6.49752">
        <ele>2064</ele>
        <time>2008-03-20T10:05:01Z</time>
      </trkpt>
      <trkpt lat="45.90663" lon="6.49772">
        <ele>2072</ele>
        <time>2008-03-20T10:05:45Z</time>
      </trkpt>
      <trkpt lat="45.9065" lon="6.49787">
        <ele>2078</ele>
        <time>2008-03-20T10:06:21Z</time>
      </trkpt>
      <trkpt lat="45.90633" lon="6.49795">
        <ele>2082</ele>
        <time>2008-03-20T10:06:54Z</time>
      </trkpt>
      <trkpt lat="45.90617" lon="6.49797">
        <ele>2086</ele>
        <time>2008-03-20T10:07:28Z</time>
      </trkpt>
      <trkpt lat="45.906" lon="6.49793">
        <ele>2091</ele>
        <time>2008-03-20T10:08:02Z</time>
      </trkpt>
      <trkpt lat="45.90583" lon="6.49792">
        <ele>2096</ele>
        <time>2008-03-20T10:08:40Z</time>
      </trkpt>
      <trkpt lat="45.90588" lon="6.49815">
        <ele>2101</ele>
        <time>2008-03-20T10:09:24Z</time>
      </trkpt>
      <trkpt lat="45.90597" lon="6.49837">
        <ele>2105</ele>
        <time>2008-03-20T10:09:55Z</time>
      </trkpt>
      <trkpt lat="45.90607" lon="6.49855">
        <ele>2106</ele>
        <time>2008-03-20T10:10:21Z</time>
      </trkpt>
      <trkpt lat="45.90618" lon="6.49872">
        <ele>2108</ele>
        <time>2008-03-20T10:10:47Z</time>
      </trkpt>
      <trkpt lat="45.90628" lon="6.4989">
        <ele>2112</ele>
        <time>2008-03-20T10:11:19Z</time>
      </trkpt>
      <trkpt lat="45.90645" lon="6.49897">
        <ele>2118</ele>
        <time>2008-03-20T10:11:59Z</time>
      </trkpt>
      <trkpt lat="45.90637" lon="6.49918">
        <ele>2124</ele>
        <time>2008-03-20T10:12:36Z</time>
      </trkpt>
      <trkpt lat="45.90653" lon="6.49927">
        <ele>2129</ele>
        <time>2008-03-20T10:13:08Z</time>
      </trkpt>
      <trkpt lat="45.90647" lon="6.4995">
        <ele>2136</ele>
        <time>2008-03-20T10:13:52Z</time>
      </trkpt>
      <trkpt lat="45.90657" lon="6.4997">
        <ele>2144</ele>
        <time>2008-03-20T10:14:54Z</time>
      </trkpt>
      <trkpt lat="45.90673" lon="6.49978">
        <ele>2148</ele>
        <time>2008-03-20T10:15:28Z</time>
      </trkpt>
      <trkpt lat="45.90687" lon="6.49995">
        <ele>2154</ele>
        <time>2008-03-20T10:16:05Z</time>
      </trkpt>
      <trkpt lat="45.90698" lon="6.50013">
        <ele>2158</ele>
        <time>2008-03-20T10:16:39Z</time>
      </trkpt>
      <trkpt lat="45.90712" lon="6.5003">
        <ele>2162</ele>
        <time>2008-03-20T10:17:09Z</time>
      </trkpt>
      <trkpt lat="45.90725" lon="6.50043">
        <ele>2166</ele>
        <time>2008-03-20T10:17:43Z</time>
      </trkpt>
      <trkpt lat="45.90738" lon="6.50058">
        <ele>2170</ele>
        <time>2008-03-20T10:18:17Z</time>
      </trkpt>
      <trkpt lat="45.90752" lon="6.50075">
        <ele>2174</ele>
        <time>2008-03-20T10:18:52Z</time>
      </trkpt>
      <trkpt lat="45.90743" lon="6.50097">
        <ele>2183</ele>
        <time>2008-03-20T10:19:50Z</time>
      </trkpt>
      <trkpt lat="45.9075" lon="6.50118">
        <ele>2190</ele>
        <time>2008-03-20T10:21:04Z</time>
      </trkpt>
      <trkpt lat="45.90763" lon="6.50133">
        <ele>2194</ele>
        <time>2008-03-20T10:21:34Z</time>
      </trkpt>
      <trkpt lat="45.90778" lon="6.50147">
        <ele>2198</ele>
        <time>2008-03-20T10:22:23Z</time>
      </trkpt>
      <trkpt lat="45.90785" lon="6.5017">
        <ele>2205</ele>
        <time>2008-03-20T10:34:26Z</time>
      </trkpt>
      <trkpt lat="45.9079" lon="6.50193">
        <ele>2209</ele>
        <time>2008-03-20T10:34:55Z</time>
      </trkpt>
      <trkpt lat="45.90797" lon="6.50217">
        <ele>2216</ele>
        <time>2008-03-20T10:35:25Z</time>
      </trkpt>
      <trkpt lat="45.90782" lon="6.5023">
        <ele>2221</ele>
        <time>2008-03-20T10:35:57Z</time>
      </trkpt>
      <trkpt lat="45.9077" lon="6.50248">
        <ele>2227</ele>
        <time>2008-03-20T10:36:29Z</time>
      </trkpt>
      <trkpt lat="45.90762" lon="6.5027">
        <ele>2232</ele>
        <time>2008-03-20T10:38:02Z</time>
      </trkpt>
      <trkpt lat="45.90753" lon="6.5029">
        <ele>2236</ele>
        <time>2008-03-20T10:38:36Z</time>
      </trkpt>
      <trkpt lat="45.90762" lon="6.50312">
        <ele>2245</ele>
        <time>2008-03-20T10:39:52Z</time>
      </trkpt>
      <trkpt lat="45.90755" lon="6.50335">
        <ele>2253</ele>
        <time>2008-03-20T10:40:51Z</time>
      </trkpt>
      <trkpt lat="45.90742" lon="6.50352">
        <ele>2258</ele>
        <time>2008-03-20T10:41:27Z</time>
      </trkpt>
      <trkpt lat="45.90747" lon="6.50375">
        <ele>2265</ele>
        <time>2008-03-20T10:42:05Z</time>
      </trkpt>
      <trkpt lat="45.90752" lon="6.50398">
        <ele>2271</ele>
        <time>2008-03-20T10:42:35Z</time>
      </trkpt>
      <trkpt lat="45.90745" lon="6.50422">
        <ele>2275</ele>
        <time>2008-03-20T10:43:07Z</time>
      </trkpt>
      <trkpt lat="45.9073" lon="6.50435">
        <ele>2279</ele>
        <time>2008-03-20T10:43:37Z</time>
      </trkpt>
      <trkpt lat="45.90715" lon="6.50443">
        <ele>2282</ele>
        <time>2008-03-20T10:44:04Z</time>
      </trkpt>
      <trkpt lat="45.90723" lon="6.50465">
        <ele>2290</ele>
        <time>2008-03-20T10:44:46Z</time>
      </trkpt>
      <trkpt lat="45.90737" lon="6.50482">
        <ele>2298</ele>
        <time>2008-03-20T10:45:26Z</time>
      </trkpt>
      <trkpt lat="45.90738" lon="6.50507">
        <ele>2304</ele>
        <time>2008-03-20T10:46:04Z</time>
      </trkpt>
      <trkpt lat="45.90743" lon="6.5053">
        <ele>2310</ele>
        <time>2008-03-20T10:46:42Z</time>
      </trkpt>
      <trkpt lat="45.90747" lon="6.50555">
        <ele>2316</ele>
        <time>2008-03-20T10:47:19Z</time>
      </trkpt>
      <trkpt lat="45.90753" lon="6.50578">
        <ele>2320</ele>
        <time>2008-03-20T10:47:47Z</time>
      </trkpt>
      <trkpt lat="45.90755" lon="6.50603">
        <ele>2326</ele>
        <time>2008-03-20T10:48:25Z</time>
      </trkpt>
      <trkpt lat="45.90758" lon="6.50628">
        <ele>2330</ele>
        <time>2008-03-20T10:48:57Z</time>
      </trkpt>
      <trkpt lat="45.90765" lon="6.50652">
        <ele>2335</ele>
        <time>2008-03-20T10:49:33Z</time>
      </trkpt>
      <trkpt lat="45.90772" lon="6.50675">
        <ele>2340</ele>
        <time>2008-03-20T10:50:08Z</time>
      </trkpt>
      <trkpt lat="45.90775" lon="6.507">
        <ele>2348</ele>
        <time>2008-03-20T10:50:46Z</time>
      </trkpt>
      <trkpt lat="45.90777" lon="6.50725">
        <ele>2354</ele>
        <time>2008-03-20T10:51:26Z</time>
      </trkpt>
      <trkpt lat="45.90783" lon="6.50748">
        <ele>2362</ele>
        <time>2008-03-20T10:52:04Z</time>
      </trkpt>
      <trkpt lat="45.9079" lon="6.50772">
        <ele>2369</ele>
        <time>2008-03-20T10:52:45Z</time>
      </trkpt>
      <trkpt lat="45.90795" lon="6.50793">
        <ele>2374</ele>
        <time>2008-03-20T10:53:17Z</time>
      </trkpt>
      <trkpt lat="45.90802" lon="6.50815">
        <ele>2380</ele>
        <time>2008-03-20T10:53:45Z</time>
      </trkpt>
      <trkpt lat="45.90808" lon="6.50838">
        <ele>2385</ele>
        <time>2008-03-20T10:54:21Z</time>
      </trkpt>
      <trkpt lat="45.9081" lon="6.50863">
        <ele>2392</ele>
        <time>2008-03-20T10:55:09Z</time>
      </trkpt>
      <trkpt lat="45.90827" lon="6.50865">
        <ele>2397</ele>
        <time>2008-03-20T10:55:39Z</time>
      </trkpt>
      <trkpt lat="45.90833" lon="6.50842">
        <ele>2400</ele>
        <time>2008-03-20T10:56:08Z</time>
      </trkpt>
      <trkpt lat="45.9084" lon="6.5082">
        <ele>2405</ele>
        <time>2008-03-20T10:56:34Z</time>
      </trkpt>
      <trkpt lat="45.90848" lon="6.50842">
        <ele>2412</ele>
        <time>2008-03-20T10:57:10Z</time>
      </trkpt>
      <trkpt lat="45.90865" lon="6.50848">
        <ele>2427</ele>
        <time>2008-03-20T10:58:45Z</time>
      </trkpt>
      <trkpt lat="45.90873" lon="6.50827">
        <ele>2432</ele>
        <time>2008-03-20T10:59:21Z</time>
      </trkpt>
      <trkpt lat="45.90882" lon="6.50805">
        <ele>2437</ele>
        <time>2008-03-20T10:59:55Z</time>
      </trkpt>
      <trkpt lat="45.9089" lon="6.50783">
        <ele>2442</ele>
        <time>2008-03-20T11:00:29Z</time>
      </trkpt>
      <trkpt lat="45.909" lon="6.50803">
        <ele>2450</ele>
        <time>2008-03-20T11:01:46Z</time>
      </trkpt>
      <trkpt lat="45.90888" lon="6.50785">
        <ele>2441</ele>
        <time>2008-03-20T12:06:59Z</time>
      </trkpt>
      <trkpt lat="45.90883" lon="6.50798">
        <ele>2437</ele>
        <time>2008-03-20T12:10:08Z</time>
      </trkpt>
      <trkpt lat="45.90878" lon="6.50822">
        <ele>2433</ele>
        <time>2008-03-20T12:10:12Z</time>
      </trkpt>
      <trkpt lat="45.90862" lon="6.50828">
        <ele>2424</ele>
        <time>2008-03-20T12:10:20Z</time>
      </trkpt>
      <trkpt lat="45.90847" lon="6.50833">
        <ele>2413</ele>
        <time>2008-03-20T12:11:11Z</time>
      </trkpt>
      <trkpt lat="45.90833" lon="6.50842">
        <ele>2406</ele>
        <time>2008-03-20T12:11:19Z</time>
      </trkpt>
      <trkpt lat="45.9083" lon="6.50848">
        <ele>2399</ele>
        <time>2008-03-20T12:11:21Z</time>
      </trkpt>
      <trkpt lat="45.90817" lon="6.50872">
        <ele>2397</ele>
        <time>2008-03-20T12:11:23Z</time>
      </trkpt>
      <trkpt lat="45.90808" lon="6.50858">
        <ele>2377</ele>
        <time>2008-03-20T12:11:59Z</time>
      </trkpt>
      <trkpt lat="45.90805" lon="6.50845">
        <ele>2375</ele>
        <time>2008-03-20T12:12:01Z</time>
      </trkpt>
      <trkpt lat="45.90803" lon="6.5083">
        <ele>2372</ele>
        <time>2008-03-20T12:12:03Z</time>
      </trkpt>
      <trkpt lat="45.90795" lon="6.50808">
        <ele>2371</ele>
        <time>2008-03-20T12:12:07Z</time>
      </trkpt>
      <trkpt lat="45.90783" lon="6.50793">
        <ele>2375</ele>
        <time>2008-03-20T12:12:35Z</time>
      </trkpt>
      <trkpt lat="45.90775" lon="6.50778">
        <ele>2374</ele>
        <time>2008-03-20T12:12:39Z</time>
      </trkpt>
      <trkpt lat="45.90772" lon="6.50753">
        <ele>2371</ele>
        <time>2008-03-20T12:12:43Z</time>
      </trkpt>
      <trkpt lat="45.90768" lon="6.50733">
        <ele>2368</ele>
        <time>2008-03-20T12:12:47Z</time>
      </trkpt>
      <trkpt lat="45.90755" lon="6.50718">
        <ele>2356</ele>
        <time>2008-03-20T12:13:31Z</time>
      </trkpt>
      <trkpt lat="45.90755" lon="6.50698">
        <ele>2354</ele>
        <time>2008-03-20T12:13:35Z</time>
      </trkpt>
      <trkpt lat="45.90752" lon="6.50673">
        <ele>2349</ele>
        <time>2008-03-20T12:13:39Z</time>
      </trkpt>
      <trkpt lat="45.90747" lon="6.50662">
        <ele>2348</ele>
        <time>2008-03-20T12:13:42Z</time>
      </trkpt>
      <trkpt lat="45.90747" lon="6.50647">
        <ele>2346</ele>
        <time>2008-03-20T12:13:44Z</time>
      </trkpt>
      <trkpt lat="45.90742" lon="6.50625">
        <ele>2343</ele>
        <time>2008-03-20T12:13:48Z</time>
      </trkpt>
      <trkpt lat="45.90752" lon="6.5061">
        <ele>2328</ele>
        <time>2008-03-20T12:14:26Z</time>
      </trkpt>
      <trkpt lat="45.90755" lon="6.5059">
        <ele>2325</ele>
        <time>2008-03-20T12:14:30Z</time>
      </trkpt>
      <trkpt lat="45.90758" lon="6.50573">
        <ele>2324</ele>
        <time>2008-03-20T12:14:32Z</time>
      </trkpt>
      <trkpt lat="45.90763" lon="6.5055">
        <ele>2322</ele>
        <time>2008-03-20T12:14:36Z</time>
      </trkpt>
      <trkpt lat="45.9075" lon="6.50538">
        <ele>2314</ele>
        <time>2008-03-20T12:14:50Z</time>
      </trkpt>
      <trkpt lat="45.90743" lon="6.50518">
        <ele>2307</ele>
        <time>2008-03-20T12:16:47Z</time>
      </trkpt>
      <trkpt lat="45.90738" lon="6.50495">
        <ele>2303</ele>
        <time>2008-03-20T12:16:51Z</time>
      </trkpt>
      <trkpt lat="45.90728" lon="6.50478">
        <ele>2296</ele>
        <time>2008-03-20T12:16:57Z</time>
      </trkpt>
      <trkpt lat="45.90727" lon="6.5046">
        <ele>2290</ele>
        <time>2008-03-20T12:17:03Z</time>
      </trkpt>
      <trkpt lat="45.9072" lon="6.50437">
        <ele>2285</ele>
        <time>2008-03-20T12:17:09Z</time>
      </trkpt>
      <trkpt lat="45.90732" lon="6.50418">
        <ele>2279</ele>
        <time>2008-03-20T12:17:15Z</time>
      </trkpt>
      <trkpt lat="45.90728" lon="6.50398">
        <ele>2272</ele>
        <time>2008-03-20T12:17:19Z</time>
      </trkpt>
      <trkpt lat="45.9072" lon="6.50382">
        <ele>2267</ele>
        <time>2008-03-20T12:17:23Z</time>
      </trkpt>
      <trkpt lat="45.90708" lon="6.50363">
        <ele>2261</ele>
        <time>2008-03-20T12:17:29Z</time>
      </trkpt>
      <trkpt lat="45.9071" lon="6.50343">
        <ele>2257</ele>
        <time>2008-03-20T12:18:01Z</time>
      </trkpt>
      <trkpt lat="45.90723" lon="6.50327">
        <ele>2254</ele>
        <time>2008-03-20T12:18:07Z</time>
      </trkpt>
      <trkpt lat="45.90735" lon="6.50318">
        <ele>2250</ele>
        <time>2008-03-20T12:18:15Z</time>
      </trkpt>
      <trkpt lat="45.90743" lon="6.5031">
        <ele>2246</ele>
        <time>2008-03-20T12:18:17Z</time>
      </trkpt>
      <trkpt lat="45.90747" lon="6.50298">
        <ele>2242</ele>
        <time>2008-03-20T12:18:19Z</time>
      </trkpt>
      <trkpt lat="45.90755" lon="6.50285">
        <ele>2238</ele>
        <time>2008-03-20T12:18:21Z</time>
      </trkpt>
      <trkpt lat="45.90765" lon="6.5028">
        <ele>2236</ele>
        <time>2008-03-20T12:18:23Z</time>
      </trkpt>
      <trkpt lat="45.90768" lon="6.5026">
        <ele>2230</ele>
        <time>2008-03-20T12:18:29Z</time>
      </trkpt>
      <trkpt lat="45.90768" lon="6.50235">
        <ele>2228</ele>
        <time>2008-03-20T12:18:33Z</time>
      </trkpt>
      <trkpt lat="45.90775" lon="6.5022">
        <ele>2225</ele>
        <time>2008-03-20T12:19:01Z</time>
      </trkpt>
      <trkpt lat="45.90782" lon="6.50212">
        <ele>2224</ele>
        <time>2008-03-20T12:19:03Z</time>
      </trkpt>
      <trkpt lat="45.90787" lon="6.502">
        <ele>2222</ele>
        <time>2008-03-20T12:19:05Z</time>
      </trkpt>
      <trkpt lat="45.90795" lon="6.50183">
        <ele>2218</ele>
        <time>2008-03-20T12:19:07Z</time>
      </trkpt>
      <trkpt lat="45.90808" lon="6.5017">
        <ele>2215</ele>
        <time>2008-03-20T12:19:09Z</time>
      </trkpt>
      <trkpt lat="45.90823" lon="6.50157">
        <ele>2212</ele>
        <time>2008-03-20T12:19:11Z</time>
      </trkpt>
      <trkpt lat="45.90837" lon="6.50145">
        <ele>2210</ele>
        <time>2008-03-20T12:19:13Z</time>
      </trkpt>
      <trkpt lat="45.90847" lon="6.50137">
        <ele>2208</ele>
        <time>2008-03-20T12:19:15Z</time>
      </trkpt>
      <trkpt lat="45.90853" lon="6.50123">
        <ele>2206</ele>
        <time>2008-03-20T12:19:17Z</time>
      </trkpt>
      <trkpt lat="45.90857" lon="6.50105">
        <ele>2203</ele>
        <time>2008-03-20T12:19:19Z</time>
      </trkpt>
      <trkpt lat="45.9086" lon="6.50087">
        <ele>2202</ele>
        <time>2008-03-20T12:19:21Z</time>
      </trkpt>
      <trkpt lat="45.90863" lon="6.50062">
        <ele>2198</ele>
        <time>2008-03-20T12:19:58Z</time>
      </trkpt>
      <trkpt lat="45.90877" lon="6.50072">
        <ele>2201</ele>
        <time>2008-03-20T12:21:22Z</time>
      </trkpt>
      <trkpt lat="45.90893" lon="6.50067">
        <ele>2193</ele>
        <time>2008-03-20T12:21:30Z</time>
      </trkpt>
      <trkpt lat="45.90902" lon="6.50047">
        <ele>2181</ele>
        <time>2008-03-20T12:21:38Z</time>
      </trkpt>
      <trkpt lat="45.90908" lon="6.5003">
        <ele>2170</ele>
        <time>2008-03-20T12:21:44Z</time>
      </trkpt>
      <trkpt lat="45.90917" lon="6.50015">
        <ele>2159</ele>
        <time>2008-03-20T12:21:50Z</time>
      </trkpt>
      <trkpt lat="45.90925" lon="6.49998">
        <ele>2148</ele>
        <time>2008-03-20T12:21:56Z</time>
      </trkpt>
      <trkpt lat="45.90932" lon="6.49978">
        <ele>2137</ele>
        <time>2008-03-20T12:22:02Z</time>
      </trkpt>
      <trkpt lat="45.90937" lon="6.49962">
        <ele>2126</ele>
        <time>2008-03-20T12:22:08Z</time>
      </trkpt>
      <trkpt lat="45.9093" lon="6.49942">
        <ele>2114</ele>
        <time>2008-03-20T12:22:59Z</time>
      </trkpt>
      <trkpt lat="45.9092" lon="6.49928">
        <ele>2112</ele>
        <time>2008-03-20T12:23:03Z</time>
      </trkpt>
      <trkpt lat="45.9091" lon="6.49915">
        <ele>2110</ele>
        <time>2008-03-20T12:23:07Z</time>
      </trkpt>
      <trkpt lat="45.9091" lon="6.4989">
        <ele>2099</ele>
        <time>2008-03-20T12:23:15Z</time>
      </trkpt>
      <trkpt lat="45.90918" lon="6.49872">
        <ele>2087</ele>
        <time>2008-03-20T12:23:21Z</time>
      </trkpt>
      <trkpt lat="45.90927" lon="6.49855">
        <ele>2072</ele>
        <time>2008-03-20T12:23:27Z</time>
      </trkpt>
      <trkpt lat="45.9092" lon="6.49832">
        <ele>2064</ele>
        <time>2008-03-20T12:24:09Z</time>
      </trkpt>
      <trkpt lat="45.90922" lon="6.49813">
        <ele>2055</ele>
        <time>2008-03-20T12:24:15Z</time>
      </trkpt>
      <trkpt lat="45.90925" lon="6.49793">
        <ele>2045</ele>
        <time>2008-03-20T12:24:21Z</time>
      </trkpt>
      <trkpt lat="45.90922" lon="6.49772">
        <ele>2036</ele>
        <time>2008-03-20T12:24:27Z</time>
      </trkpt>
      <trkpt lat="45.90917" lon="6.49753">
        <ele>2032</ele>
        <time>2008-03-20T12:24:31Z</time>
      </trkpt>
      <trkpt lat="45.9092" lon="6.49728">
        <ele>2018</ele>
        <time>2008-03-20T12:24:39Z</time>
      </trkpt>
      <trkpt lat="45.90923" lon="6.49708">
        <ele>2008</ele>
        <time>2008-03-20T12:24:45Z</time>
      </trkpt>
      <trkpt lat="45.90917" lon="6.49685">
        <ele>2006</ele>
        <time>2008-03-20T12:27:04Z</time>
      </trkpt>
      <trkpt lat="45.90928" lon="6.49668">
        <ele>1993</ele>
        <time>2008-03-20T12:27:10Z</time>
      </trkpt>
      <trkpt lat="45.90938" lon="6.49648">
        <ele>1979</ele>
        <time>2008-03-20T12:27:16Z</time>
      </trkpt>
      <trkpt lat="45.90947" lon="6.49638">
        <ele>1975</ele>
        <time>2008-03-20T12:27:18Z</time>
      </trkpt>
      <trkpt lat="45.90953" lon="6.49627">
        <ele>1971</ele>
        <time>2008-03-20T12:27:20Z</time>
      </trkpt>
      <trkpt lat="45.90962" lon="6.49617">
        <ele>1966</ele>
        <time>2008-03-20T12:27:22Z</time>
      </trkpt>
      <trkpt lat="45.90968" lon="6.49607">
        <ele>1961</ele>
        <time>2008-03-20T12:27:24Z</time>
      </trkpt>
      <trkpt lat="45.90982" lon="6.4959">
        <ele>1951</ele>
        <time>2008-03-20T12:27:32Z</time>
      </trkpt>
      <trkpt lat="45.90982" lon="6.49572">
        <ele>1950</ele>
        <time>2008-03-20T12:28:16Z</time>
      </trkpt>
      <trkpt lat="45.90993" lon="6.4956">
        <ele>1945</ele>
        <time>2008-03-20T12:28:20Z</time>
      </trkpt>
      <trkpt lat="45.91002" lon="6.49545">
        <ele>1937</ele>
        <time>2008-03-20T12:28:24Z</time>
      </trkpt>
      <trkpt lat="45.91007" lon="6.49523">
        <ele>1932</ele>
        <time>2008-03-20T12:28:28Z</time>
      </trkpt>
      <trkpt lat="45.91007" lon="6.49503">
        <ele>1925</ele>
        <time>2008-03-20T12:28:32Z</time>
      </trkpt>
      <trkpt lat="45.91012" lon="6.49485">
        <ele>1918</ele>
        <time>2008-03-20T12:28:36Z</time>
      </trkpt>
      <trkpt lat="45.91017" lon="6.4947">
        <ele>1910</ele>
        <time>2008-03-20T12:28:40Z</time>
      </trkpt>
      <trkpt lat="45.9102" lon="6.4945">
        <ele>1903</ele>
        <time>2008-03-20T12:28:44Z</time>
      </trkpt>
      <trkpt lat="45.9102" lon="6.49427">
        <ele>1896</ele>
        <time>2008-03-20T12:28:48Z</time>
      </trkpt>
      <trkpt lat="45.91023" lon="6.49407">
        <ele>1888</ele>
        <time>2008-03-20T12:28:52Z</time>
      </trkpt>
      <trkpt lat="45.91028" lon="6.49383">
        <ele>1881</ele>
        <time>2008-03-20T12:28:57Z</time>
      </trkpt>
      <trkpt lat="45.91033" lon="6.49372">
        <ele>1877</ele>
        <time>2008-03-20T12:28:59Z</time>
      </trkpt>
      <trkpt lat="45.91038" lon="6.4936">
        <ele>1873</ele>
        <time>2008-03-20T12:29:01Z</time>
      </trkpt>
      <trkpt lat="45.91042" lon="6.49347">
        <ele>1869</ele>
        <time>2008-03-20T12:29:03Z</time>
      </trkpt>
      <trkpt lat="45.91045" lon="6.49335">
        <ele>1865</ele>
        <time>2008-03-20T12:29:05Z</time>
      </trkpt>
      <trkpt lat="45.91052" lon="6.49325">
        <ele>1861</ele>
        <time>2008-03-20T12:29:07Z</time>
      </trkpt>
      <trkpt lat="45.9106" lon="6.49313">
        <ele>1857</ele>
        <time>2008-03-20T12:29:09Z</time>
      </trkpt>
      <trkpt lat="45.9107" lon="6.49293">
        <ele>1846</ele>
        <time>2008-03-20T12:32:18Z</time>
      </trkpt>
      <trkpt lat="45.91067" lon="6.49282">
        <ele>1845</ele>
        <time>2008-03-20T12:32:20Z</time>
      </trkpt>
      <trkpt lat="45.91063" lon="6.49268">
        <ele>1843</ele>
        <time>2008-03-20T12:32:22Z</time>
      </trkpt>
      <trkpt lat="45.91058" lon="6.49252">
        <ele>1841</ele>
        <time>2008-03-20T12:32:24Z</time>
      </trkpt>
      <trkpt lat="45.91057" lon="6.49235">
        <ele>1840</ele>
        <time>2008-03-20T12:32:26Z</time>
      </trkpt>
      <trkpt lat="45.91057" lon="6.49222">
        <ele>1839</ele>
        <time>2008-03-20T12:32:28Z</time>
      </trkpt>
      <trkpt lat="45.91068" lon="6.49205">
        <ele>1832</ele>
        <time>2008-03-20T12:32:32Z</time>
      </trkpt>
      <trkpt lat="45.91077" lon="6.49202">
        <ele>1826</ele>
        <time>2008-03-20T12:32:34Z</time>
      </trkpt>
      <trkpt lat="45.91088" lon="6.49198">
        <ele>1822</ele>
        <time>2008-03-20T12:32:36Z</time>
      </trkpt>
      <trkpt lat="45.91103" lon="6.49185">
        <ele>1811</ele>
        <time>2008-03-20T12:32:42Z</time>
      </trkpt>
      <trkpt lat="45.91113" lon="6.4918">
        <ele>1807</ele>
        <time>2008-03-20T12:32:44Z</time>
      </trkpt>
      <trkpt lat="45.91127" lon="6.49173">
        <ele>1799</ele>
        <time>2008-03-20T12:32:48Z</time>
      </trkpt>
      <trkpt lat="45.9113" lon="6.49155">
        <ele>1794</ele>
        <time>2008-03-20T12:32:52Z</time>
      </trkpt>
      <trkpt lat="45.9114" lon="6.49135">
        <ele>1786</ele>
        <time>2008-03-20T12:32:56Z</time>
      </trkpt>
      <trkpt lat="45.91155" lon="6.49138">
        <ele>1779</ele>
        <time>2008-03-20T12:33:00Z</time>
      </trkpt>
      <trkpt lat="45.91163" lon="6.49135">
        <ele>1775</ele>
        <time>2008-03-20T12:33:02Z</time>
      </trkpt>
      <trkpt lat="45.91173" lon="6.49135">
        <ele>1771</ele>
        <time>2008-03-20T12:33:04Z</time>
      </trkpt>
      <trkpt lat="45.91183" lon="6.49145">
        <ele>1768</ele>
        <time>2008-03-20T12:33:06Z</time>
      </trkpt>
      <trkpt lat="45.9119" lon="6.49153">
        <ele>1765</ele>
        <time>2008-03-20T12:33:08Z</time>
      </trkpt>
      <trkpt lat="45.91198" lon="6.49165">
        <ele>1763</ele>
        <time>2008-03-20T12:33:10Z</time>
      </trkpt>
      <trkpt lat="45.91208" lon="6.49175">
        <ele>1760</ele>
        <time>2008-03-20T12:33:12Z</time>
      </trkpt>
      <trkpt lat="45.91217" lon="6.49173">
        <ele>1757</ele>
        <time>2008-03-20T12:33:14Z</time>
      </trkpt>
      <trkpt lat="45.91232" lon="6.49182">
        <ele>1752</ele>
        <time>2008-03-20T12:33:18Z</time>
      </trkpt>
      <trkpt lat="45.91242" lon="6.4917">
        <ele>1754</ele>
        <time>2008-03-20T12:35:57Z</time>
      </trkpt>
      <trkpt lat="45.91252" lon="6.49157">
        <ele>1747</ele>
        <time>2008-03-20T12:36:01Z</time>
      </trkpt>
      <trkpt lat="45.91265" lon="6.49142">
        <ele>1734</ele>
        <time>2008-03-20T12:36:15Z</time>
      </trkpt>
      <trkpt lat="45.91275" lon="6.4915">
        <ele>1731</ele>
        <time>2008-03-20T12:36:19Z</time>
      </trkpt>
      <trkpt lat="45.9129" lon="6.49137">
        <ele>1723</ele>
        <time>2008-03-20T12:36:25Z</time>
      </trkpt>
      <trkpt lat="45.913" lon="6.49123">
        <ele>1716</ele>
        <time>2008-03-20T12:36:29Z</time>
      </trkpt>
      <trkpt lat="45.91315" lon="6.49122">
        <ele>1710</ele>
        <time>2008-03-20T12:36:33Z</time>
      </trkpt>
      <trkpt lat="45.91327" lon="6.49107">
        <ele>1703</ele>
        <time>2008-03-20T12:36:39Z</time>
      </trkpt>
      <trkpt lat="45.91327" lon="6.49083">
        <ele>1696</ele>
        <time>2008-03-20T12:36:45Z</time>
      </trkpt>
      <trkpt lat="45.91343" lon="6.49077">
        <ele>1687</ele>
        <time>2008-03-20T12:36:53Z</time>
      </trkpt>
      <trkpt lat="45.91355" lon="6.49072">
        <ele>1680</ele>
        <time>2008-03-20T12:36:57Z</time>
      </trkpt>
      <trkpt lat="45.91365" lon="6.4906">
        <ele>1674</ele>
        <time>2008-03-20T12:37:01Z</time>
      </trkpt>
      <trkpt lat="45.9138" lon="6.49068">
        <ele>1671</ele>
        <time>2008-03-20T12:37:07Z</time>
      </trkpt>
      <trkpt lat="45.91395" lon="6.49068">
        <ele>1666</ele>
        <time>2008-03-20T12:37:41Z</time>
      </trkpt>
      <trkpt lat="45.91405" lon="6.49058">
        <ele>1662</ele>
        <time>2008-03-20T12:37:45Z</time>
      </trkpt>
      <trkpt lat="45.91418" lon="6.49042">
        <ele>1653</ele>
        <time>2008-03-20T12:37:51Z</time>
      </trkpt>
      <trkpt lat="45.91435" lon="6.49037">
        <ele>1644</ele>
        <time>2008-03-20T12:38:24Z</time>
      </trkpt>
      <trkpt lat="45.91447" lon="6.49025">
        <ele>1632</ele>
        <time>2008-03-20T12:38:44Z</time>
      </trkpt>
      <trkpt lat="45.91457" lon="6.49012">
        <ele>1627</ele>
        <time>2008-03-20T12:38:48Z</time>
      </trkpt>
      <trkpt lat="45.91473" lon="6.49013">
        <ele>1624</ele>
        <time>2008-03-20T12:38:54Z</time>
      </trkpt>
      <trkpt lat="45.91488" lon="6.49015">
        <ele>1622</ele>
        <time>2008-03-20T12:39:00Z</time>
      </trkpt>
      <trkpt lat="45.91498" lon="6.49002">
        <ele>1620</ele>
        <time>2008-03-20T12:40:46Z</time>
      </trkpt>
      <trkpt lat="45.91512" lon="6.48987">
        <ele>1609</ele>
        <time>2008-03-20T12:41:29Z</time>
      </trkpt>
      <trkpt lat="45.91512" lon="6.48962">
        <ele>1598</ele>
        <time>2008-03-20T12:43:09Z</time>
      </trkpt>
      <trkpt lat="45.9152" lon="6.48943">
        <ele>1585</ele>
        <time>2008-03-20T12:43:19Z</time>
      </trkpt>
      <trkpt lat="45.91525" lon="6.4892">
        <ele>1573</ele>
        <time>2008-03-20T12:43:27Z</time>
      </trkpt>
      <trkpt lat="45.91525" lon="6.48895">
        <ele>1560</ele>
        <time>2008-03-20T12:43:43Z</time>
      </trkpt>
      <trkpt lat="45.91522" lon="6.48878">
        <ele>1555</ele>
        <time>2008-03-20T12:43:51Z</time>
      </trkpt>
      <trkpt lat="45.91533" lon="6.48863">
        <ele>1550</ele>
        <time>2008-03-20T12:46:42Z</time>
      </trkpt>
      <trkpt lat="45.91533" lon="6.48847">
        <ele>1544</ele>
        <time>2008-03-20T12:46:46Z</time>
      </trkpt>
      <trkpt lat="45.91545" lon="6.48837">
        <ele>1541</ele>
        <time>2008-03-20T12:46:48Z</time>
      </trkpt>
      <trkpt lat="45.91547" lon="6.48815">
        <ele>1535</ele>
        <time>2008-03-20T12:46:52Z</time>
      </trkpt>
      <trkpt lat="45.91557" lon="6.48798">
        <ele>1528</ele>
        <time>2008-03-20T12:46:58Z</time>
      </trkpt>
      <trkpt lat="45.9156" lon="6.48775">
        <ele>1520</ele>
        <time>2008-03-20T12:47:04Z</time>
      </trkpt>
      <trkpt lat="45.91572" lon="6.48757">
        <ele>1511</ele>
        <time>2008-03-20T12:47:10Z</time>
      </trkpt>
      <trkpt lat="45.91583" lon="6.48745">
        <ele>1501</ele>
        <time>2008-03-20T12:47:57Z</time>
      </trkpt>
      <trkpt lat="45.91583" lon="6.48723">
        <ele>1493</ele>
        <time>2008-03-20T12:48:03Z</time>
      </trkpt>
      <trkpt lat="45.91577" lon="6.48703">
        <ele>1486</ele>
        <time>2008-03-20T12:48:09Z</time>
      </trkpt>
      <trkpt lat="45.9157" lon="6.48685">
        <ele>1483</ele>
        <time>2008-03-20T12:48:15Z</time>
      </trkpt>
      <trkpt lat="45.91573" lon="6.4866">
        <ele>1473</ele>
        <time>2008-03-20T12:48:35Z</time>
      </trkpt>
      <trkpt lat="45.91572" lon="6.48645">
        <ele>1469</ele>
        <time>2008-03-20T12:48:41Z</time>
      </trkpt>
      <trkpt lat="45.91567" lon="6.4863">
        <ele>1465</ele>
        <time>2008-03-20T12:48:45Z</time>
      </trkpt>
      <trkpt lat="45.9156" lon="6.48607">
        <ele>1459</ele>
        <time>2008-03-20T12:49:01Z</time>
      </trkpt>
      <trkpt lat="45.91552" lon="6.4859">
        <ele>1454</ele>
        <time>2008-03-20T12:49:19Z</time>
      </trkpt>
      <trkpt lat="45.9154" lon="6.48573">
        <ele>1450</ele>
        <time>2008-03-20T12:49:47Z</time>
      </trkpt>
      <trkpt lat="45.91528" lon="6.48562">
        <ele>1449</ele>
        <time>2008-03-20T12:49:51Z</time>
      </trkpt>
      <trkpt lat="45.91515" lon="6.48545">
        <ele>1447</ele>
        <time>2008-03-20T12:49:57Z</time>
      </trkpt>
      <trkpt lat="45.91502" lon="6.48532">
        <ele>1445</ele>
        <time>2008-03-20T12:50:03Z</time>
      </trkpt>
      <trkpt lat="45.91493" lon="6.48523">
        <ele>1442</ele>
        <time>2008-03-20T12:50:07Z</time>
      </trkpt>
      <trkpt lat="45.91478" lon="6.4851">
        <ele>1439</ele>
        <time>2008-03-20T12:50:12Z</time>
      </trkpt>
      <trkpt lat="45.91468" lon="6.48495">
        <ele>1437</ele>
        <time>2008-03-20T12:50:15Z</time>
      </trkpt>
      <trkpt lat="45.9146" lon="6.48473">
        <ele>1435</ele>
        <time>2008-03-20T12:50:21Z</time>
      </trkpt>
      <trkpt lat="45.91457" lon="6.4845">
        <ele>1428</ele>
        <time>2008-03-20T12:50:33Z</time>
      </trkpt>
      <trkpt lat="45.91462" lon="6.48432">
        <ele>1419</ele>
        <time>2008-03-20T12:50:39Z</time>
      </trkpt>
      <trkpt lat="45.91452" lon="6.48412">
        <ele>1416</ele>
        <time>2008-03-20T12:50:46Z</time>
      </trkpt>
      <trkpt lat="45.91458" lon="6.48388">
        <ele>1412</ele>
        <time>2008-03-20T12:50:58Z</time>
      </trkpt>
      <trkpt lat="45.91473" lon="6.4838">
        <ele>1404</ele>
        <time>2008-03-20T12:51:06Z</time>
      </trkpt>
      <trkpt lat="45.91485" lon="6.48365">
        <ele>1398</ele>
        <time>2008-03-20T12:51:12Z</time>
      </trkpt>
      <trkpt lat="45.91488" lon="6.48342">
        <ele>1394</ele>
        <time>2008-03-20T12:51:20Z</time>
      </trkpt>
      <trkpt lat="45.91503" lon="6.48338">
        <ele>1386</ele>
        <time>2008-03-20T12:51:24Z</time>
      </trkpt>
      <trkpt lat="45.9152" lon="6.48337">
        <ele>1383</ele>
        <time>2008-03-20T12:51:26Z</time>
      </trkpt>
      <trkpt lat="45.91535" lon="6.48333">
        <ele>1380</ele>
        <time>2008-03-20T12:51:28Z</time>
      </trkpt>
      <trkpt lat="45.9155" lon="6.48327">
        <ele>1378</ele>
        <time>2008-03-20T12:51:30Z</time>
      </trkpt>
      <trkpt lat="45.91563" lon="6.4832">
        <ele>1375</ele>
        <time>2008-03-20T12:51:32Z</time>
      </trkpt>
      <trkpt lat="45.91575" lon="6.4831">
        <ele>1373</ele>
        <time>2008-03-20T12:51:34Z</time>
      </trkpt>
      <trkpt lat="45.91588" lon="6.483">
        <ele>1370</ele>
        <time>2008-03-20T12:51:36Z</time>
      </trkpt>
      <trkpt lat="45.91603" lon="6.48288">
        <ele>1367</ele>
        <time>2008-03-20T12:51:38Z</time>
      </trkpt>
      <trkpt lat="45.9162" lon="6.48275">
        <ele>1364</ele>
        <time>2008-03-20T12:51:40Z</time>
      </trkpt>
      <trkpt lat="45.91637" lon="6.48262">
        <ele>1361</ele>
        <time>2008-03-20T12:51:42Z</time>
      </trkpt>
      <trkpt lat="45.91653" lon="6.48248">
        <ele>1358</ele>
        <time>2008-03-20T12:51:44Z</time>
      </trkpt>
      <trkpt lat="45.9167" lon="6.48235">
        <ele>1355</ele>
        <time>2008-03-20T12:51:46Z</time>
      </trkpt>
      <trkpt lat="45.91688" lon="6.48222">
        <ele>1352</ele>
        <time>2008-03-20T12:51:48Z</time>
      </trkpt>
      <trkpt lat="45.91707" lon="6.48208">
        <ele>1350</ele>
        <time>2008-03-20T12:51:50Z</time>
      </trkpt>
      <trkpt lat="45.91723" lon="6.48195">
        <ele>1348</ele>
        <time>2008-03-20T12:51:52Z</time>
      </trkpt>
      <trkpt lat="45.9174" lon="6.48183">
        <ele>1347</ele>
        <time>2008-03-20T12:51:54Z</time>
      </trkpt>
      <trkpt lat="45.91752" lon="6.48177">
        <ele>1347</ele>
        <time>2008-03-20T12:51:56Z</time>
      </trkpt>
      <trkpt lat="45.91768" lon="6.4817">
        <ele>1349</ele>
        <time>2008-03-20T12:52:08Z</time>
      </trkpt>
      <trkpt lat="45.91783" lon="6.48162">
        <ele>1352</ele>
        <time>2008-03-20T12:52:48Z</time>
      </trkpt>
      <trkpt lat="45.91795" lon="6.48153">
        <ele>1352</ele>
        <time>2008-03-20T12:52:52Z</time>
      </trkpt>
      <trkpt lat="45.91808" lon="6.4814">
        <ele>1354</ele>
        <time>2008-03-20T12:53:00Z</time>
      </trkpt>
      <trkpt lat="45.91822" lon="6.48127">
        <ele>1355</ele>
        <time>2008-03-20T12:53:10Z</time>
      </trkpt>
      <trkpt lat="45.91838" lon="6.4812">
        <ele>1356</ele>
        <time>2008-03-20T12:53:32Z</time>
      </trkpt>
      <trkpt lat="45.91855" lon="6.48112">
        <ele>1356</ele>
        <time>2008-03-20T12:53:47Z</time>
      </trkpt>
      <trkpt lat="45.9187" lon="6.48098">
        <ele>1358</ele>
        <time>2008-03-20T12:54:19Z</time>
      </trkpt>
      <trkpt lat="45.9188" lon="6.48078">
        <ele>1360</ele>
        <time>2008-03-20T12:54:49Z</time>
      </trkpt>
      <trkpt lat="45.91887" lon="6.48058">
        <ele>1362</ele>
        <time>2008-03-20T12:55:05Z</time>
      </trkpt>
      <trkpt lat="45.91895" lon="6.48037">
        <ele>1363</ele>
        <time>2008-03-20T12:55:17Z</time>
      </trkpt>
      <trkpt lat="45.9191" lon="6.48023">
        <ele>1364</ele>
        <time>2008-03-20T12:55:45Z</time>
      </trkpt>
      <trkpt lat="45.91925" lon="6.4801">
        <ele>1364</ele>
        <time>2008-03-20T12:56:03Z</time>
      </trkpt>
      <trkpt lat="45.91937" lon="6.47998">
        <ele>1365</ele>
        <time>2008-03-20T12:56:11Z</time>
      </trkpt>
      <trkpt lat="45.91952" lon="6.47987">
        <ele>1366</ele>
        <time>2008-03-20T12:56:33Z</time>
      </trkpt>
      <trkpt lat="45.9196" lon="6.4797">
        <ele>1366</ele>
        <time>2008-03-20T12:56:43Z</time>
      </trkpt>
      <trkpt lat="45.9197" lon="6.47953">
        <ele>1367</ele>
        <time>2008-03-20T12:56:51Z</time>
      </trkpt>
      <trkpt lat="45.91977" lon="6.47933">
        <ele>1367</ele>
        <time>2008-03-20T12:57:00Z</time>
      </trkpt>
      <trkpt lat="45.91978" lon="6.47908">
        <ele>1368</ele>
        <time>2008-03-20T12:57:16Z</time>
      </trkpt>
    </trkseg>
  </trk>
</gpx>